TMW weather

Tamworth Airport
Tamworth, New South Wales, Australia

Public forecast

Using degrees Celsius for public forecast. Weather courtesy of forecast.io.

METAR (pilot weather report)

Retrieved 2017/11/19 23:30 UTC (0 seconds ago):

YSTW 192330Z AUTO 13013KT 9999 // BKN046 BKN052 21/10 Q1022

TAF (pilot weather forecast)

Retrieved 2017/11/19 18:36 UTC (5 hours ago):

TAF YSTW 191646Z 1918/2012 13005KT 9999 BKN030 FM192200 12008KT 9999 SCT035